FDX5960 KIND-KATL
Flight info
| Callsign | FDX5960 |
|---|---|
| Flight time | 1h 19m |
| Altitude | 28000 |
| Route | DAWNN1 MYS HITMN/N0482F350 NEWBB IHAVE MTHEW CHPPR1 |
| Aircraft | B77L/H-SDE1E2E3FGHIJ2J3J4J5M1RWXY/LB1D1 |
Departure
| Time | 2026-05-06 18:06 |
|---|---|
| Airport | Indianapolis International Airport (KIND) |
Arrival
| Time | 2026-05-06 19:25 |
|---|---|
| Airport | Hartsfield Jackson Atlanta International Airport (KATL) |
| Time | Latitude | Longitude | Altitude | Speed | Heading |
|---|---|---|---|---|---|
| 2026-05-06 17:22 | 39.70848 | -86.28813 | 796 ft | 0 kts | 136° |
| 2026-05-06 17:48 | 39.70863 | -86.28832 | 796 ft | 4 kts | 132° |
| 2026-05-06 17:48 | 39.70879 | -86.28854 | 795 ft | 4 kts | 143° |
| 2026-05-06 17:48 | 39.70899 | -86.28863 | 795 ft | 4 kts | 211° |
| 2026-05-06 17:49 | 39.70917 | -86.28841 | 795 ft | 2 kts | 224° |
| 2026-05-06 17:49 | 39.70919 | -86.28839 | 795 ft | 2 kts | 224° |
| 2026-05-06 17:53 | 39.70896 | -86.28868 | 795 ft | 12 kts | 224° |
| 2026-05-06 17:53 | 39.70876 | -86.28893 | 795 ft | 0 kts | 224° |
| 2026-05-06 17:53 | 39.70875 | -86.28895 | 795 ft | 3 kts | 224° |
| 2026-05-06 17:53 | 39.70854 | -86.28925 | 795 ft | 5 kts | 236° |
| 2026-05-06 17:54 | 39.70838 | -86.28961 | 794 ft | 5 kts | 237° |
| 2026-05-06 17:54 | 39.70838 | -86.29001 | 794 ft | 5 kts | 290° |
| 2026-05-06 17:54 | 39.70862 | -86.29028 | 794 ft | 5 kts | 331° |
| 2026-05-06 17:54 | 39.70888 | -86.29051 | 794 ft | 5 kts | 325° |
| 2026-05-06 17:55 | 39.70919 | -86.29062 | 794 ft | 5 kts | 355° |
| 2026-05-06 17:55 | 39.70949 | -86.29050 | 794 ft | 5 kts | 28° |
| 2026-05-06 17:55 | 39.70975 | -86.29026 | 794 ft | 5 kts | 39° |
| 2026-05-06 17:55 | 39.70998 | -86.28998 | 794 ft | 4 kts | 43° |
| 2026-05-06 17:56 | 39.71023 | -86.28969 | 795 ft | 6 kts | 43° |
| 2026-05-06 17:56 | 39.71062 | -86.28919 | 796 ft | 10 kts | 44° |
| 2026-05-06 17:56 | 39.71121 | -86.28844 | 797 ft | 14 kts | 44° |
| 2026-05-06 17:56 | 39.71204 | -86.28735 | 797 ft | 19 kts | 49° |
| 2026-05-06 17:57 | 39.71291 | -86.28584 | 797 ft | 22 kts | 35° |
| 2026-05-06 17:57 | 39.71423 | -86.28457 | 795 ft | 27 kts | 45° |
| 2026-05-06 17:57 | 39.71556 | -86.28285 | 791 ft | 27 kts | 50° |
| 2026-05-06 17:57 | 39.71651 | -86.28075 | 793 ft | 27 kts | 53° |
| 2026-05-06 17:58 | 39.71783 | -86.27901 | 795 ft | 27 kts | 44° |
| 2026-05-06 17:58 | 39.71917 | -86.27729 | 794 ft | 27 kts | 44° |
| 2026-05-06 17:58 | 39.72031 | -86.27585 | 795 ft | 17 kts | 45° |
| 2026-05-06 17:58 | 39.72121 | -86.27499 | 792 ft | 14 kts | 10° |
| 2026-05-06 17:59 | 39.72153 | -86.27514 | 792 ft | 9 kts | 323° |
| 2026-05-06 17:59 | 39.72198 | -86.27575 | 791 ft | 9 kts | 314° |
| 2026-05-06 17:59 | 39.72244 | -86.27635 | 790 ft | 9 kts | 316° |
| 2026-05-06 17:59 | 39.72291 | -86.27695 | 790 ft | 9 kts | 314° |
| 2026-05-06 18:00 | 39.72336 | -86.27756 | 790 ft | 9 kts | 313° |
| 2026-05-06 18:00 | 39.72382 | -86.27818 | 790 ft | 9 kts | 313° |
| 2026-05-06 18:00 | 39.72428 | -86.27878 | 789 ft | 9 kts | 315° |
| 2026-05-06 18:00 | 39.72475 | -86.27937 | 789 ft | 9 kts | 314° |
| 2026-05-06 18:01 | 39.72523 | -86.28000 | 790 ft | 11 kts | 315° |
| 2026-05-06 18:01 | 39.72589 | -86.28088 | 791 ft | 18 kts | 314° |
| 2026-05-06 18:01 | 39.72702 | -86.28238 | 795 ft | 28 kts | 314° |
| 2026-05-06 18:01 | 39.72861 | -86.28447 | 795 ft | 37 kts | 315° |
| 2026-05-06 18:02 | 39.73031 | -86.28671 | 792 ft | 30 kts | 315° |
| 2026-05-06 18:02 | 39.73177 | -86.28861 | 791 ft | 29 kts | 315° |
| 2026-05-06 18:02 | 39.73268 | -86.28998 | 792 ft | 15 kts | 288° |
| 2026-05-06 18:02 | 39.73235 | -86.29099 | 796 ft | 13 kts | 229° |
| 2026-05-06 18:03 | 39.73173 | -86.29178 | 795 ft | 13 kts | 225° |
| 2026-05-06 18:03 | 39.73111 | -86.29258 | 792 ft | 13 kts | 225° |
| 2026-05-06 18:03 | 39.73048 | -86.29337 | 793 ft | 13 kts | 224° |
| 2026-05-06 18:03 | 39.72988 | -86.29418 | 793 ft | 12 kts | 220° |
| 2026-05-06 18:04 | 39.72909 | -86.29404 | 789 ft | 13 kts | 143° |
| 2026-05-06 18:04 | 39.72843 | -86.29330 | 787 ft | 13 kts | 163° |
| 2026-05-06 18:04 | 39.72773 | -86.29363 | 786 ft | 0 kts | 224° |
| 2026-05-06 18:05 | 39.72773 | -86.29364 | 786 ft | 1 kts | 224° |
| 2026-05-06 18:05 | 39.72727 | -86.29423 | 788 ft | 28 kts | 225° |
| 2026-05-06 18:05 | 39.72407 | -86.29829 | 787 ft | 98 kts | 224° |
| 2026-05-06 18:06 | 39.71778 | -86.30630 | 788 ft | 154 kts | 224° |
| 2026-05-06 18:06 | 39.70925 | -86.31683 | 1016 ft | 177 kts | 224° |
| 2026-05-06 18:06 | 39.70038 | -86.32840 | 1512 ft | 186 kts | 226° |
| 2026-05-06 18:06 | 39.69073 | -86.34074 | 1925 ft | 205 kts | 227° |
| 2026-05-06 18:07 | 39.67975 | -86.35383 | 2354 ft | 223 kts | 217° |
| 2026-05-06 18:07 | 39.66523 | -86.36177 | 3094 ft | 230 kts | 190° |
| 2026-05-06 18:07 | 39.64939 | -86.36139 | 3982 ft | 228 kts | 168° |
| 2026-05-06 18:07 | 39.63443 | -86.35564 | 4890 ft | 220 kts | 159° |
| 2026-05-06 18:08 | 39.62064 | -86.34842 | 5789 ft | 203 kts | 160° |
| 2026-05-06 18:08 | 39.60796 | -86.34099 | 6489 ft | 202 kts | 154° |
| 2026-05-06 18:08 | 39.59521 | -86.33318 | 6889 ft | 205 kts | 161° |
| 2026-05-06 18:08 | 39.58173 | -86.32651 | 7331 ft | 210 kts | 165° |
| 2026-05-06 18:09 | 39.56764 | -86.32129 | 7866 ft | 210 kts | 173° |
| 2026-05-06 18:09 | 39.55339 | -86.31751 | 8469 ft | 209 kts | 176° |
| 2026-05-06 18:09 | 39.53912 | -86.31448 | 9057 ft | 207 kts | 181° |
| 2026-05-06 18:09 | 39.52448 | -86.31202 | 9500 ft | 216 kts | 181° |
| 2026-05-06 18:10 | 39.50924 | -86.30990 | 9927 ft | 224 kts | 185° |
| 2026-05-06 18:10 | 39.49297 | -86.30875 | 9994 ft | 249 kts | 187° |
| 2026-05-06 18:10 | 39.47479 | -86.30847 | 10097 ft | 268 kts | 188° |
| 2026-05-06 18:10 | 39.45592 | -86.30877 | 10461 ft | 272 kts | 190° |
| 2026-05-06 18:11 | 39.43705 | -86.30961 | 10846 ft | 272 kts | 192° |
| 2026-05-06 18:11 | 39.41817 | -86.31089 | 11275 ft | 273 kts | 193° |
| 2026-05-06 18:11 | 39.39914 | -86.31241 | 11696 ft | 274 kts | 194° |
| 2026-05-06 18:11 | 39.38005 | -86.31403 | 12095 ft | 276 kts | 194° |
| 2026-05-06 18:12 | 39.36109 | -86.31561 | 12538 ft | 278 kts | 194° |
| 2026-05-06 18:12 | 39.34117 | -86.31565 | 12955 ft | 287 kts | 188° |
| 2026-05-06 18:12 | 39.32111 | -86.31352 | 13392 ft | 292 kts | 186° |
| 2026-05-06 18:12 | 39.30088 | -86.31084 | 13802 ft | 293 kts | 187° |
| 2026-05-06 18:13 | 39.28092 | -86.30823 | 14088 ft | 291 kts | 187° |
| 2026-05-06 18:13 | 39.26087 | -86.30561 | 14440 ft | 287 kts | 187° |
| 2026-05-06 18:13 | 39.24089 | -86.30319 | 14815 ft | 292 kts | 188° |
| 2026-05-06 18:13 | 39.22048 | -86.30087 | 15220 ft | 297 kts | 188° |
| 2026-05-06 18:14 | 39.19973 | -86.29851 | 15613 ft | 299 kts | 188° |
| 2026-05-06 18:14 | 39.17882 | -86.29615 | 16024 ft | 302 kts | 188° |
| 2026-05-06 18:14 | 39.15782 | -86.29381 | 16433 ft | 306 kts | 188° |
| 2026-05-06 18:14 | 39.13656 | -86.29143 | 16846 ft | 308 kts | 188° |
| 2026-05-06 18:15 | 39.11512 | -86.28904 | 17255 ft | 310 kts | 188° |
| 2026-05-06 18:15 | 39.09355 | -86.28661 | 17677 ft | 312 kts | 189° |
| 2026-05-06 18:15 | 39.07184 | -86.28419 | 18085 ft | 314 kts | 189° |
| 2026-05-06 18:15 | 39.04991 | -86.28177 | 18457 ft | 318 kts | 189° |
| 2026-05-06 18:16 | 39.02774 | -86.27933 | 18835 ft | 321 kts | 189° |
| 2026-05-06 18:16 | 39.00535 | -86.27687 | 19224 ft | 324 kts | 189° |
| 2026-05-06 18:16 | 38.98279 | -86.27439 | 19614 ft | 327 kts | 189° |
| 2026-05-06 18:16 | 38.96004 | -86.27188 | 20006 ft | 329 kts | 190° |
| 2026-05-06 18:17 | 38.93713 | -86.26936 | 20402 ft | 331 kts | 190° |
| 2026-05-06 18:17 | 38.91414 | -86.26681 | 20801 ft | 333 kts | 190° |
| 2026-05-06 18:17 | 38.89097 | -86.26424 | 21196 ft | 334 kts | 190° |
| 2026-05-06 18:17 | 38.86774 | -86.26166 | 21610 ft | 335 kts | 191° |
| 2026-05-06 18:18 | 38.84453 | -86.25908 | 22030 ft | 336 kts | 191° |
| 2026-05-06 18:18 | 38.82121 | -86.25649 | 22401 ft | 336 kts | 191° |
| 2026-05-06 18:18 | 38.79804 | -86.25393 | 22822 ft | 335 kts | 191° |
| 2026-05-06 18:18 | 38.77476 | -86.25135 | 23258 ft | 335 kts | 191° |
| 2026-05-06 18:19 | 38.75154 | -86.24878 | 23662 ft | 334 kts | 192° |
| 2026-05-06 18:19 | 38.72847 | -86.24623 | 24001 ft | 333 kts | 192° |
| 2026-05-06 18:19 | 38.70548 | -86.24369 | 24359 ft | 331 kts | 192° |
| 2026-05-06 18:19 | 38.68256 | -86.24117 | 24728 ft | 329 kts | 192° |
| 2026-05-06 18:20 | 38.65988 | -86.23868 | 25087 ft | 326 kts | 193° |
| 2026-05-06 18:20 | 38.63735 | -86.23620 | 25447 ft | 324 kts | 193° |
| 2026-05-06 18:20 | 38.61498 | -86.23374 | 25814 ft | 320 kts | 193° |
| 2026-05-06 18:20 | 38.59289 | -86.23130 | 26148 ft | 317 kts | 193° |
| 2026-05-06 18:21 | 38.57108 | -86.22890 | 26495 ft | 312 kts | 193° |
| 2026-05-06 18:21 | 38.54986 | -86.22781 | 26865 ft | 299 kts | 198° |
| 2026-05-06 18:21 | 38.52940 | -86.22816 | 27241 ft | 290 kts | 200° |
| 2026-05-06 18:21 | 38.50947 | -86.22883 | 27621 ft | 283 kts | 201° |
| 2026-05-06 18:22 | 38.49660 | -86.22929 | 27879 ft | 278 kts | 201° |
| 2026-05-06 18:22 | 38.47721 | -86.23003 | 27993 ft | 284 kts | 201° |
| 2026-05-06 18:22 | 38.45697 | -86.23096 | 28028 ft | 297 kts | 200° |
| 2026-05-06 18:22 | 38.43576 | -86.23186 | 28012 ft | 312 kts | 199° |
| 2026-05-06 18:23 | 38.41355 | -86.23269 | 28014 ft | 328 kts | 199° |
| 2026-05-06 18:23 | 38.39017 | -86.23345 | 28031 ft | 343 kts | 198° |
| 2026-05-06 18:23 | 38.36589 | -86.23414 | 28029 ft | 358 kts | 197° |
| 2026-05-06 18:23 | 38.34035 | -86.23480 | 28001 ft | 374 kts | 196° |
| 2026-05-06 18:24 | 38.31393 | -86.23541 | 28021 ft | 388 kts | 196° |
| 2026-05-06 18:24 | 38.28650 | -86.23603 | 28001 ft | 402 kts | 195° |
| 2026-05-06 18:24 | 38.25802 | -86.23665 | 28015 ft | 413 kts | 195° |
| 2026-05-06 18:24 | 38.22904 | -86.23719 | 28006 ft | 419 kts | 194° |
| 2026-05-06 18:25 | 38.19996 | -86.23770 | 27991 ft | 418 kts | 194° |
| 2026-05-06 18:25 | 38.17083 | -86.23820 | 28000 ft | 417 kts | 195° |
| 2026-05-06 18:25 | 38.14183 | -86.23877 | 27987 ft | 416 kts | 195° |
| 2026-05-06 18:25 | 38.11304 | -86.23940 | 27948 ft | 414 kts | 195° |
| 2026-05-06 18:26 | 38.08422 | -86.24006 | 27982 ft | 414 kts | 195° |
| 2026-05-06 18:26 | 38.05536 | -86.24075 | 27984 ft | 415 kts | 195° |
| 2026-05-06 18:26 | 38.02653 | -86.24144 | 27977 ft | 415 kts | 195° |
| 2026-05-06 18:26 | 37.99760 | -86.24212 | 27979 ft | 416 kts | 195° |
| 2026-05-06 18:27 | 37.96859 | -86.24280 | 27973 ft | 417 kts | 195° |
| 2026-05-06 18:27 | 37.94000 | -86.24347 | 27967 ft | 418 kts | 195° |
| 2026-05-06 18:27 | 37.91057 | -86.24415 | 27971 ft | 418 kts | 194° |
| 2026-05-06 18:27 | 37.88203 | -86.24587 | 27931 ft | 409 kts | 200° |
| 2026-05-06 18:28 | 37.85427 | -86.25254 | 27975 ft | 398 kts | 205° |
| 2026-05-06 18:28 | 37.82755 | -86.26020 | 27969 ft | 400 kts | 205° |
| 2026-05-06 18:28 | 37.80036 | -86.26777 | 27976 ft | 401 kts | 205° |
| 2026-05-06 18:28 | 37.77307 | -86.27515 | 27968 ft | 402 kts | 204° |
| 2026-05-06 18:29 | 37.74564 | -86.28239 | 27968 ft | 403 kts | 204° |
| 2026-05-06 18:29 | 37.71820 | -86.28951 | 27968 ft | 403 kts | 204° |
| 2026-05-06 18:29 | 37.69070 | -86.29657 | 27960 ft | 403 kts | 204° |
| 2026-05-06 18:29 | 37.66319 | -86.30358 | 27964 ft | 402 kts | 204° |
| 2026-05-06 18:30 | 37.63579 | -86.31055 | 27938 ft | 401 kts | 204° |
| 2026-05-06 18:30 | 37.60846 | -86.31748 | 27970 ft | 400 kts | 204° |
| 2026-05-06 18:30 | 37.58122 | -86.32440 | 27965 ft | 399 kts | 204° |
| 2026-05-06 18:30 | 37.55412 | -86.33128 | 27965 ft | 399 kts | 204° |
| 2026-05-06 18:31 | 37.52674 | -86.33824 | 27967 ft | 399 kts | 204° |
| 2026-05-06 18:31 | 37.49964 | -86.34512 | 27975 ft | 398 kts | 204° |
| 2026-05-06 18:31 | 37.47251 | -86.35201 | 27975 ft | 398 kts | 204° |
| 2026-05-06 18:31 | 37.44524 | -86.35893 | 27966 ft | 398 kts | 204° |
| 2026-05-06 18:32 | 37.41815 | -86.36580 | 27914 ft | 398 kts | 203° |
| 2026-05-06 18:32 | 37.39091 | -86.37270 | 27946 ft | 397 kts | 203° |
| 2026-05-06 18:32 | 37.36382 | -86.37955 | 27953 ft | 397 kts | 203° |
| 2026-05-06 18:32 | 37.33677 | -86.38638 | 27963 ft | 397 kts | 203° |
| 2026-05-06 18:33 | 37.30960 | -86.39325 | 27967 ft | 397 kts | 203° |
| 2026-05-06 18:33 | 37.28247 | -86.40010 | 27971 ft | 398 kts | 203° |
| 2026-05-06 18:33 | 37.25537 | -86.40694 | 27971 ft | 398 kts | 203° |
| 2026-05-06 18:33 | 37.22822 | -86.41378 | 27979 ft | 398 kts | 203° |
| 2026-05-06 18:34 | 37.20107 | -86.42062 | 27985 ft | 398 kts | 203° |
| 2026-05-06 18:34 | 37.17389 | -86.42746 | 27940 ft | 399 kts | 203° |
| 2026-05-06 18:34 | 37.14674 | -86.43429 | 27985 ft | 399 kts | 203° |
| 2026-05-06 18:34 | 37.11951 | -86.44113 | 27979 ft | 399 kts | 203° |
| 2026-05-06 18:35 | 37.09228 | -86.44798 | 27988 ft | 400 kts | 203° |
| 2026-05-06 18:35 | 37.06503 | -86.45481 | 27994 ft | 400 kts | 203° |
| 2026-05-06 18:35 | 37.03770 | -86.46167 | 27993 ft | 401 kts | 203° |
| 2026-05-06 18:35 | 37.01027 | -86.46854 | 27988 ft | 401 kts | 203° |
| 2026-05-06 18:36 | 36.98288 | -86.47540 | 27991 ft | 401 kts | 203° |
| 2026-05-06 18:36 | 36.95554 | -86.48223 | 27991 ft | 401 kts | 203° |
| 2026-05-06 18:36 | 36.92810 | -86.48909 | 27939 ft | 402 kts | 203° |
| 2026-05-06 18:36 | 36.90067 | -86.49593 | 27979 ft | 401 kts | 203° |
| 2026-05-06 18:37 | 36.87338 | -86.50274 | 27983 ft | 402 kts | 203° |
| 2026-05-06 18:37 | 36.84591 | -86.50961 | 27999 ft | 403 kts | 203° |
| 2026-05-06 18:37 | 36.81846 | -86.51646 | 27997 ft | 403 kts | 203° |
| 2026-05-06 18:37 | 36.79092 | -86.52332 | 27999 ft | 404 kts | 203° |
| 2026-05-06 18:38 | 36.73556 | -86.53710 | 27979 ft | 406 kts | 203° |
| 2026-05-06 18:38 | 36.70789 | -86.54397 | 27974 ft | 406 kts | 203° |
| 2026-05-06 18:38 | 36.68019 | -86.55085 | 27949 ft | 405 kts | 202° |
| 2026-05-06 18:39 | 36.65259 | -86.55767 | 27968 ft | 405 kts | 202° |
| 2026-05-06 18:39 | 36.62500 | -86.56451 | 27908 ft | 405 kts | 202° |
| 2026-05-06 18:39 | 36.59713 | -86.57142 | 27535 ft | 407 kts | 202° |
| 2026-05-06 18:40 | 36.54228 | -86.58493 | 26802 ft | 398 kts | 203° |
| 2026-05-06 18:40 | 36.51512 | -86.59162 | 26438 ft | 394 kts | 203° |
| 2026-05-06 18:40 | 36.48824 | -86.59825 | 26066 ft | 392 kts | 203° |
| 2026-05-06 18:40 | 36.46162 | -86.60484 | 25715 ft | 390 kts | 203° |
| 2026-05-06 18:41 | 36.43501 | -86.61143 | 25322 ft | 390 kts | 202° |
| 2026-05-06 18:41 | 36.40838 | -86.61805 | 24989 ft | 393 kts | 202° |
| 2026-05-06 18:41 | 36.38143 | -86.62475 | 24649 ft | 396 kts | 202° |
| 2026-05-06 18:41 | 36.35437 | -86.63141 | 24312 ft | 395 kts | 202° |
| 2026-05-06 18:42 | 36.32745 | -86.63802 | 23979 ft | 394 kts | 202° |
| 2026-05-06 18:42 | 36.30067 | -86.64458 | 23618 ft | 394 kts | 202° |
| 2026-05-06 18:42 | 36.27335 | -86.65129 | 23218 ft | 392 kts | 202° |
| 2026-05-06 18:42 | 36.24700 | -86.65775 | 22837 ft | 391 kts | 202° |
| 2026-05-06 18:43 | 36.22043 | -86.66427 | 22450 ft | 389 kts | 202° |
| 2026-05-06 18:43 | 36.19370 | -86.67082 | 22023 ft | 386 kts | 201° |
| 2026-05-06 18:43 | 36.16777 | -86.67708 | 21641 ft | 383 kts | 199° |
| 2026-05-06 18:43 | 36.14027 | -86.67774 | 21242 ft | 401 kts | 183° |
| 2026-05-06 18:44 | 36.11290 | -86.66821 | 21015 ft | 423 kts | 167° |
| 2026-05-06 18:44 | 36.08643 | -86.65071 | 21000 ft | 436 kts | 160° |
| 2026-05-06 18:44 | 36.06038 | -86.63180 | 20990 ft | 434 kts | 160° |
| 2026-05-06 18:44 | 36.03464 | -86.61323 | 21007 ft | 432 kts | 160° |
| 2026-05-06 18:45 | 36.00835 | -86.59442 | 21006 ft | 432 kts | 161° |
| 2026-05-06 18:45 | 35.98231 | -86.57595 | 21008 ft | 431 kts | 161° |
| 2026-05-06 18:45 | 35.95619 | -86.55751 | 20994 ft | 431 kts | 161° |
| 2026-05-06 18:45 | 35.93012 | -86.53917 | 21001 ft | 432 kts | 161° |
| 2026-05-06 18:46 | 35.90397 | -86.52081 | 21007 ft | 433 kts | 161° |
| 2026-05-06 18:46 | 35.87776 | -86.50243 | 20983 ft | 434 kts | 161° |
| 2026-05-06 18:46 | 35.85157 | -86.48406 | 20975 ft | 435 kts | 161° |
| 2026-05-06 18:46 | 35.82513 | -86.46553 | 20973 ft | 436 kts | 161° |
| 2026-05-06 18:47 | 35.79872 | -86.44703 | 20969 ft | 437 kts | 161° |
| 2026-05-06 18:47 | 35.77231 | -86.42853 | 20968 ft | 438 kts | 161° |
| 2026-05-06 18:47 | 35.74592 | -86.41009 | 20962 ft | 438 kts | 161° |
| 2026-05-06 18:47 | 35.71937 | -86.39146 | 20960 ft | 439 kts | 161° |
| 2026-05-06 18:48 | 35.69295 | -86.37272 | 20924 ft | 438 kts | 160° |
| 2026-05-06 18:48 | 35.66660 | -86.35394 | 20941 ft | 436 kts | 160° |
| 2026-05-06 18:48 | 35.64041 | -86.33529 | 20949 ft | 435 kts | 160° |
| 2026-05-06 18:48 | 35.61427 | -86.31673 | 20948 ft | 434 kts | 160° |
| 2026-05-06 18:49 | 35.58818 | -86.29824 | 20953 ft | 434 kts | 160° |
| 2026-05-06 18:49 | 35.56206 | -86.27976 | 20951 ft | 434 kts | 160° |
| 2026-05-06 18:49 | 35.53583 | -86.26122 | 20953 ft | 434 kts | 160° |
| 2026-05-06 18:49 | 35.50963 | -86.24272 | 20953 ft | 434 kts | 160° |
| 2026-05-06 18:50 | 35.48340 | -86.22421 | 20958 ft | 435 kts | 160° |
| 2026-05-06 18:50 | 35.45712 | -86.20567 | 20953 ft | 436 kts | 160° |
| 2026-05-06 18:50 | 35.43092 | -86.18715 | 20924 ft | 436 kts | 159° |
| 2026-05-06 18:50 | 35.40559 | -86.16598 | 20938 ft | 446 kts | 150° |
| 2026-05-06 18:51 | 35.38154 | -86.14177 | 20946 ft | 450 kts | 149° |
| 2026-05-06 18:51 | 35.35756 | -86.11717 | 20953 ft | 450 kts | 149° |
| 2026-05-06 18:51 | 35.33328 | -86.09274 | 20964 ft | 451 kts | 149° |
| 2026-05-06 18:51 | 35.30885 | -86.06877 | 20967 ft | 451 kts | 150° |
| 2026-05-06 18:52 | 35.28422 | -86.04492 | 20990 ft | 451 kts | 150° |
| 2026-05-06 18:52 | 35.25958 | -86.02116 | 20978 ft | 451 kts | 150° |
| 2026-05-06 18:52 | 35.23487 | -85.99746 | 20976 ft | 451 kts | 150° |
| 2026-05-06 18:52 | 35.21035 | -85.97402 | 20702 ft | 452 kts | 150° |
| 2026-05-06 18:53 | 35.18553 | -85.95035 | 20284 ft | 451 kts | 150° |
| 2026-05-06 18:53 | 35.16106 | -85.92693 | 19855 ft | 447 kts | 150° |
| 2026-05-06 18:53 | 35.13667 | -85.90359 | 19402 ft | 442 kts | 150° |
| 2026-05-06 18:53 | 35.11258 | -85.88057 | 19018 ft | 438 kts | 150° |
| 2026-05-06 18:54 | 35.08868 | -85.85771 | 18622 ft | 434 kts | 150° |
| 2026-05-06 18:54 | 35.06500 | -85.83511 | 18239 ft | 430 kts | 150° |
| 2026-05-06 18:54 | 35.04149 | -85.81273 | 17808 ft | 426 kts | 150° |
| 2026-05-06 18:54 | 35.01823 | -85.79059 | 17361 ft | 423 kts | 150° |
| 2026-05-06 18:55 | 34.99506 | -85.76854 | 17053 ft | 417 kts | 150° |
| 2026-05-06 18:55 | 34.97262 | -85.74717 | 16951 ft | 407 kts | 150° |
| 2026-05-06 18:55 | 34.95006 | -85.72578 | 16837 ft | 415 kts | 150° |
| 2026-05-06 18:55 | 34.92706 | -85.70405 | 16738 ft | 421 kts | 149° |
| 2026-05-06 18:56 | 34.90392 | -85.68213 | 16587 ft | 422 kts | 149° |
| 2026-05-06 18:56 | 34.88077 | -85.66010 | 16443 ft | 421 kts | 149° |
| 2026-05-06 18:56 | 34.85777 | -85.63826 | 16353 ft | 419 kts | 149° |
| 2026-05-06 18:56 | 34.83482 | -85.61657 | 16206 ft | 417 kts | 149° |
| 2026-05-06 18:57 | 34.81193 | -85.59493 | 16097 ft | 415 kts | 149° |
| 2026-05-06 18:57 | 34.78923 | -85.57346 | 15978 ft | 414 kts | 149° |
| 2026-05-06 18:57 | 34.76657 | -85.55203 | 15838 ft | 412 kts | 149° |
| 2026-05-06 18:57 | 34.74397 | -85.53063 | 15699 ft | 410 kts | 149° |
| 2026-05-06 18:58 | 34.72150 | -85.50942 | 15604 ft | 408 kts | 149° |
| 2026-05-06 18:58 | 34.69915 | -85.48835 | 15491 ft | 407 kts | 149° |
| 2026-05-06 18:58 | 34.67681 | -85.46730 | 15365 ft | 406 kts | 149° |
| 2026-05-06 18:58 | 34.65447 | -85.44619 | 15223 ft | 405 kts | 149° |
| 2026-05-06 18:59 | 34.63235 | -85.42528 | 15115 ft | 404 kts | 149° |
| 2026-05-06 18:59 | 34.61011 | -85.40443 | 14986 ft | 403 kts | 149° |
| 2026-05-06 18:59 | 34.58800 | -85.38370 | 14872 ft | 402 kts | 149° |
| 2026-05-06 18:59 | 34.56589 | -85.36294 | 14754 ft | 402 kts | 149° |
| 2026-05-06 19:00 | 34.54373 | -85.34211 | 14647 ft | 401 kts | 149° |
| 2026-05-06 19:00 | 34.52174 | -85.32145 | 14521 ft | 401 kts | 149° |
| 2026-05-06 19:00 | 34.49970 | -85.30076 | 14422 ft | 400 kts | 149° |
| 2026-05-06 19:00 | 34.48511 | -85.28705 | 14349 ft | 400 kts | 149° |
| 2026-05-06 19:01 | 34.45572 | -85.25949 | 14185 ft | 399 kts | 149° |
| 2026-05-06 19:01 | 34.43376 | -85.23894 | 14082 ft | 398 kts | 149° |
| 2026-05-06 19:01 | 34.41200 | -85.21857 | 13981 ft | 396 kts | 149° |
| 2026-05-06 19:01 | 34.39019 | -85.19818 | 13852 ft | 396 kts | 149° |
| 2026-05-06 19:02 | 34.36833 | -85.17775 | 13728 ft | 394 kts | 149° |
| 2026-05-06 19:02 | 34.34666 | -85.15750 | 13597 ft | 393 kts | 149° |
| 2026-05-06 19:02 | 34.32504 | -85.13734 | 13463 ft | 392 kts | 149° |
| 2026-05-06 19:02 | 34.30376 | -85.11750 | 13334 ft | 391 kts | 149° |
| 2026-05-06 19:03 | 34.28927 | -85.10401 | 13249 ft | 390 kts | 148° |
| 2026-05-06 19:03 | 34.26776 | -85.08397 | 13122 ft | 388 kts | 148° |
| 2026-05-06 19:03 | 34.24646 | -85.06415 | 13027 ft | 386 kts | 148° |
| 2026-05-06 19:03 | 34.22524 | -85.04440 | 12962 ft | 384 kts | 149° |
| 2026-05-06 19:04 | 34.20408 | -85.02474 | 12963 ft | 384 kts | 149° |
| 2026-05-06 19:04 | 34.18284 | -85.00502 | 12969 ft | 385 kts | 149° |
| 2026-05-06 19:04 | 34.16155 | -84.98525 | 12973 ft | 386 kts | 149° |
| 2026-05-06 19:04 | 34.14029 | -84.96551 | 12964 ft | 387 kts | 149° |
| 2026-05-06 19:05 | 34.11896 | -84.94545 | 12735 ft | 390 kts | 148° |
| 2026-05-06 19:05 | 34.09769 | -84.92524 | 12417 ft | 387 kts | 148° |
| 2026-05-06 19:05 | 34.07668 | -84.90524 | 12105 ft | 382 kts | 148° |
| 2026-05-06 19:05 | 34.05595 | -84.88554 | 11821 ft | 377 kts | 148° |
| 2026-05-06 19:06 | 34.03541 | -84.86610 | 11524 ft | 373 kts | 148° |
| 2026-05-06 19:06 | 34.01513 | -84.84695 | 11226 ft | 370 kts | 148° |
| 2026-05-06 19:06 | 33.99491 | -84.82787 | 10940 ft | 368 kts | 148° |
| 2026-05-06 19:06 | 33.97482 | -84.80893 | 10660 ft | 366 kts | 148° |
| 2026-05-06 19:07 | 33.95489 | -84.79014 | 10386 ft | 364 kts | 148° |
| 2026-05-06 19:07 | 33.93490 | -84.77130 | 10100 ft | 363 kts | 148° |
| 2026-05-06 19:07 | 33.91503 | -84.75259 | 9813 ft | 363 kts | 148° |
| 2026-05-06 19:07 | 33.89514 | -84.73385 | 9513 ft | 362 kts | 148° |
| 2026-05-06 19:08 | 33.87536 | -84.71526 | 9222 ft | 359 kts | 148° |
| 2026-05-06 19:08 | 33.85600 | -84.69702 | 9004 ft | 348 kts | 148° |
| 2026-05-06 19:08 | 33.83739 | -84.67947 | 8938 ft | 332 kts | 148° |
| 2026-05-06 19:08 | 33.81967 | -84.66278 | 8943 ft | 315 kts | 149° |
| 2026-05-06 19:09 | 33.80269 | -84.64683 | 8953 ft | 306 kts | 149° |
| 2026-05-06 19:09 | 33.78588 | -84.63116 | 8961 ft | 306 kts | 149° |
| 2026-05-06 19:09 | 33.76901 | -84.61541 | 8955 ft | 307 kts | 149° |
| 2026-05-06 19:09 | 33.75205 | -84.59951 | 8819 ft | 309 kts | 147° |
| 2026-05-06 19:10 | 33.73795 | -84.57983 | 8588 ft | 319 kts | 120° |
| 2026-05-06 19:10 | 33.73234 | -84.55407 | 8443 ft | 323 kts | 94° |
| 2026-05-06 19:10 | 33.73243 | -84.52704 | 8275 ft | 322 kts | 90° |
| 2026-05-06 19:10 | 33.73274 | -84.50038 | 8086 ft | 316 kts | 90° |
| 2026-05-06 19:11 | 33.73287 | -84.47462 | 7866 ft | 308 kts | 91° |
| 2026-05-06 19:11 | 33.73292 | -84.44978 | 7654 ft | 299 kts | 91° |
| 2026-05-06 19:11 | 33.73295 | -84.42499 | 7440 ft | 290 kts | 91° |
| 2026-05-06 19:11 | 33.73296 | -84.40116 | 7226 ft | 284 kts | 91° |
| 2026-05-06 19:12 | 33.73297 | -84.37767 | 7022 ft | 282 kts | 92° |
| 2026-05-06 19:12 | 33.73297 | -84.35416 | 6805 ft | 280 kts | 92° |
| 2026-05-06 19:12 | 33.73295 | -84.33059 | 6631 ft | 278 kts | 91° |
| 2026-05-06 19:12 | 33.73294 | -84.30771 | 6447 ft | 277 kts | 92° |
| 2026-05-06 19:13 | 33.73296 | -84.28427 | 6237 ft | 275 kts | 91° |
| 2026-05-06 19:13 | 33.73299 | -84.26141 | 6043 ft | 274 kts | 91° |
| 2026-05-06 19:13 | 33.73302 | -84.23888 | 5845 ft | 272 kts | 91° |
| 2026-05-06 19:13 | 33.73304 | -84.21599 | 5637 ft | 267 kts | 91° |
| 2026-05-06 19:14 | 33.73306 | -84.19421 | 5512 ft | 254 kts | 91° |
| 2026-05-06 19:14 | 33.73309 | -84.17341 | 5305 ft | 244 kts | 91° |
| 2026-05-06 19:14 | 33.73310 | -84.15366 | 5107 ft | 235 kts | 92° |
| 2026-05-06 19:14 | 33.73312 | -84.13436 | 5042 ft | 233 kts | 92° |
| 2026-05-06 19:15 | 33.73312 | -84.11469 | 5008 ft | 234 kts | 92° |
| 2026-05-06 19:15 | 33.73315 | -84.09535 | 4964 ft | 229 kts | 92° |
| 2026-05-06 19:15 | 33.73318 | -84.07634 | 4963 ft | 227 kts | 92° |
| 2026-05-06 19:15 | 33.73283 | -84.05733 | 4959 ft | 225 kts | 103° |
| 2026-05-06 19:16 | 33.72629 | -84.04132 | 4973 ft | 211 kts | 144° |
| 2026-05-06 19:16 | 33.71386 | -84.03267 | 4981 ft | 205 kts | 167° |
| 2026-05-06 19:16 | 33.70062 | -84.02784 | 4965 ft | 194 kts | 172° |
| 2026-05-06 19:16 | 33.68808 | -84.02373 | 4960 ft | 182 kts | 172° |
| 2026-05-06 19:17 | 33.67604 | -84.01984 | 4962 ft | 178 kts | 173° |
| 2026-05-06 19:17 | 33.66408 | -84.01803 | 4952 ft | 169 kts | 198° |
| 2026-05-06 19:17 | 33.65422 | -84.02477 | 4974 ft | 164 kts | 232° |
| 2026-05-06 19:17 | 33.64932 | -84.03687 | 4971 ft | 164 kts | 262° |
| 2026-05-06 19:18 | 33.64929 | -84.05070 | 4944 ft | 168 kts | 267° |
| 2026-05-06 19:18 | 33.64925 | -84.06477 | 4763 ft | 168 kts | 267° |
| 2026-05-06 19:18 | 33.64923 | -84.07846 | 4527 ft | 161 kts | 267° |
| 2026-05-06 19:18 | 33.64924 | -84.09166 | 4445 ft | 156 kts | 267° |
| 2026-05-06 19:19 | 33.64925 | -84.10468 | 4364 ft | 156 kts | 266° |
| 2026-05-06 19:19 | 33.64927 | -84.11772 | 4371 ft | 157 kts | 266° |
| 2026-05-06 19:19 | 33.64928 | -84.13105 | 4293 ft | 162 kts | 266° |
| 2026-05-06 19:19 | 33.64929 | -84.14457 | 4229 ft | 161 kts | 267° |
| 2026-05-06 19:20 | 33.64941 | -84.15796 | 4144 ft | 160 kts | 267° |
| 2026-05-06 19:20 | 33.64951 | -84.17109 | 4068 ft | 157 kts | 266° |
| 2026-05-06 19:20 | 33.64955 | -84.18416 | 4007 ft | 157 kts | 266° |
| 2026-05-06 19:20 | 33.64957 | -84.19727 | 4006 ft | 158 kts | 266° |
| 2026-05-06 19:21 | 33.64958 | -84.21053 | 3998 ft | 160 kts | 266° |
| 2026-05-06 19:21 | 33.64958 | -84.22402 | 3988 ft | 161 kts | 265° |
| 2026-05-06 19:21 | 33.64925 | -84.23726 | 3973 ft | 159 kts | 262° |
| 2026-05-06 19:21 | 33.64873 | -84.25028 | 3897 ft | 155 kts | 265° |
| 2026-05-06 19:22 | 33.64914 | -84.26307 | 3713 ft | 152 kts | 270° |
| 2026-05-06 19:22 | 33.65017 | -84.27581 | 3164 ft | 154 kts | 271° |
| 2026-05-06 19:22 | 33.65065 | -84.28792 | 2882 ft | 142 kts | 259° |
| 2026-05-06 19:22 | 33.64870 | -84.29995 | 2751 ft | 148 kts | 257° |
| 2026-05-06 19:23 | 33.64938 | -84.31214 | 2640 ft | 148 kts | 277° |
| 2026-05-06 19:23 | 33.65085 | -84.32431 | 2637 ft | 148 kts | 266° |
| 2026-05-06 19:23 | 33.65066 | -84.33668 | 2457 ft | 147 kts | 261° |
| 2026-05-06 19:23 | 33.65001 | -84.34864 | 2132 ft | 141 kts | 263° |
| 2026-05-06 19:24 | 33.64986 | -84.36032 | 1751 ft | 139 kts | 263° |
| 2026-05-06 19:24 | 33.64973 | -84.37184 | 1652 ft | 138 kts | 262° |
| 2026-05-06 19:24 | 33.64983 | -84.38335 | 1471 ft | 140 kts | 261° |
| 2026-05-06 19:24 | 33.64972 | -84.39512 | 1277 ft | 144 kts | 261° |
| 2026-05-06 19:25 | 33.64961 | -84.40723 | 1072 ft | 145 kts | 266° |
| 2026-05-06 19:25 | 33.64949 | -84.41855 | 1010 ft | 114 kts | 270° |
| 2026-05-06 19:25 | 33.64954 | -84.42525 | 1011 ft | 47 kts | 271° |
| 2026-05-06 19:25 | 33.64954 | -84.42814 | 1011 ft | 30 kts | 269° |
| 2026-05-06 19:26 | 33.64952 | -84.43063 | 1011 ft | 30 kts | 270° |
| 2026-05-06 19:26 | 33.64953 | -84.43313 | 1010 ft | 30 kts | 271° |
| 2026-05-06 19:26 | 33.64955 | -84.43563 | 1011 ft | 30 kts | 270° |
| 2026-05-06 19:26 | 33.64952 | -84.43801 | 1011 ft | 17 kts | 268° |
| 2026-05-06 19:27 | 33.64966 | -84.43855 | 1011 ft | 0 kts | 309° |
| 2026-05-06 19:27 | 33.64973 | -84.43865 | 1011 ft | 7 kts | 315° |
| 2026-05-06 19:27 | 33.65043 | -84.43877 | 1011 ft | 11 kts | 17° |
| 2026-05-06 19:27 | 33.65099 | -84.43818 | 1011 ft | 11 kts | 61° |
| 2026-05-06 19:28 | 33.65117 | -84.43728 | 1011 ft | 11 kts | 83° |
| 2026-05-06 19:28 | 33.65119 | -84.43638 | 1011 ft | 11 kts | 91° |
| 2026-05-06 19:28 | 33.65118 | -84.43545 | 1011 ft | 11 kts | 90° |
| 2026-05-06 19:28 | 33.65111 | -84.43454 | 1011 ft | 11 kts | 101° |
| 2026-05-06 19:29 | 33.65082 | -84.43370 | 1011 ft | 11 kts | 112° |
| 2026-05-06 19:29 | 33.65059 | -84.43284 | 1010 ft | 11 kts | 94° |
| 2026-05-06 19:29 | 33.65092 | -84.43208 | 1010 ft | 11 kts | 36° |
| 2026-05-06 19:29 | 33.65161 | -84.43217 | 1011 ft | 11 kts | 332° |
| 2026-05-06 19:30 | 33.65226 | -84.43259 | 1011 ft | 11 kts | 331° |
| 2026-05-06 19:30 | 33.65289 | -84.43306 | 1011 ft | 11 kts | 317° |
| 2026-05-06 19:30 | 33.65317 | -84.43387 | 1011 ft | 11 kts | 298° |
| 2026-05-06 19:30 | 33.65357 | -84.43461 | 1011 ft | 10 kts | 299° |
| 2026-05-06 19:31 | 33.65363 | -84.43496 | 1011 ft | 0 kts | 263° |
| 2026-05-06 19:31 | 33.65361 | -84.43507 | 1011 ft | 1 kts | 258° |